sensor_id;sensor_type;location;lat;lon;timestamp;P1;durP1;ratioP1;P2;durP2;ratioP2
52468;SDS011;38381;53.688;10.776;2024-03-17T00:00:15;7.65;;;4.30;;
52468;SDS011;38381;53.688;10.776;2024-03-17T00:05:18;20.48;;;4.75;;
52468;SDS011;38381;53.688;10.776;2024-03-17T00:10:18;11.77;;;4.53;;
52468;SDS011;38381;53.688;10.776;2024-03-17T00:15:19;7.95;;;3.78;;
52468;SDS011;38381;53.688;10.776;2024-03-17T00:20:20;8.40;;;3.88;;
52468;SDS011;38381;53.688;10.776;2024-03-17T00:25:21;18.73;;;5.90;;
52468;SDS011;38381;53.688;10.776;2024-03-17T00:30:22;16.77;;;4.47;;
52468;SDS011;38381;53.688;10.776;2024-03-17T00:35:22;14.88;;;4.53;;
52468;SDS011;38381;53.688;10.776;2024-03-17T00:40:22;10.55;;;4.47;;
52468;SDS011;38381;53.688;10.776;2024-03-17T00:45:23;12.60;;;4.82;;
52468;SDS011;38381;53.688;10.776;2024-03-17T00:50:23;8.10;;;3.67;;
52468;SDS011;38381;53.688;10.776;2024-03-17T00:55:24;8.45;;;4.03;;
52468;SDS011;38381;53.688;10.776;2024-03-17T01:00:24;10.20;;;3.28;;
52468;SDS011;38381;53.688;10.776;2024-03-17T01:05:24;8.52;;;4.13;;
52468;SDS011;38381;53.688;10.776;2024-03-17T01:10:25;8.38;;;4.28;;
52468;SDS011;38381;53.688;10.776;2024-03-17T01:15:25;8.20;;;3.13;;
52468;SDS011;38381;53.688;10.776;2024-03-17T01:20:26;9.10;;;3.78;;
52468;SDS011;38381;53.688;10.776;2024-03-17T01:25:27;13.65;;;3.53;;
52468;SDS011;38381;53.688;10.776;2024-03-17T01:30:29;6.00;;;3.65;;
52468;SDS011;38381;53.688;10.776;2024-03-17T01:35:30;14.48;;;3.33;;
52468;SDS011;38381;53.688;10.776;2024-03-17T01:40:30;8.55;;;3.75;;
52468;SDS011;38381;53.688;10.776;2024-03-17T01:45:31;10.95;;;3.80;;
52468;SDS011;38381;53.688;10.776;2024-03-17T01:50:34;8.17;;;3.33;;
52468;SDS011;38381;53.688;10.776;2024-03-17T01:55:37;12.82;;;3.72;;
52468;SDS011;38381;53.688;10.776;2024-03-17T02:00:39;12.30;;;4.70;;
52468;SDS011;38381;53.688;10.776;2024-03-17T02:05:39;11.43;;;4.43;;
52468;SDS011;38381;53.688;10.776;2024-03-17T02:10:40;8.55;;;3.83;;
52468;SDS011;38381;53.688;10.776;2024-03-17T02:15:40;8.63;;;3.70;;
52468;SDS011;38381;53.688;10.776;2024-03-17T02:20:41;8.00;;;3.92;;
52468;SDS011;38381;53.688;10.776;2024-03-17T02:25:59;9.40;;;5.68;;
52468;SDS011;38381;53.688;10.776;2024-03-17T02:30:59;16.73;;;4.97;;
52468;SDS011;38381;53.688;10.776;2024-03-17T02:36:00;6.93;;;3.20;;
52468;SDS011;38381;53.688;10.776;2024-03-17T02:41:01;15.38;;;4.75;;
52468;SDS011;38381;53.688;10.776;2024-03-17T02:46:01;17.05;;;4.85;;
52468;SDS011;38381;53.688;10.776;2024-03-17T02:51:05;13.73;;;4.95;;
52468;SDS011;38381;53.688;10.776;2024-03-17T02:56:05;9.23;;;3.40;;
52468;SDS011;38381;53.688;10.776;2024-03-17T03:01:06;8.52;;;4.28;;
52468;SDS011;38381;53.688;10.776;2024-03-17T03:06:07;10.32;;;5.65;;
52468;SDS011;38381;53.688;10.776;2024-03-17T03:11:11;9.18;;;3.78;;
52468;SDS011;38381;53.688;10.776;2024-03-17T03:16:13;10.75;;;4.25;;
52468;SDS011;38381;53.688;10.776;2024-03-17T03:21:14;11.70;;;3.45;;
52468;SDS011;38381;53.688;10.776;2024-03-17T03:26:15;9.95;;;3.35;;
52468;SDS011;38381;53.688;10.776;2024-03-17T03:31:15;11.65;;;3.58;;
52468;SDS011;38381;53.688;10.776;2024-03-17T03:36:16;11.75;;;5.80;;
52468;SDS011;38381;53.688;10.776;2024-03-17T03:41:17;12.13;;;3.45;;
52468;SDS011;38381;53.688;10.776;2024-03-17T03:46:17;11.73;;;4.47;;
52468;SDS011;38381;53.688;10.776;2024-03-17T03:51:18;12.13;;;3.88;;
52468;SDS011;38381;53.688;10.776;2024-03-17T03:56:18;6.95;;;3.90;;
52468;SDS011;38381;53.688;10.776;2024-03-17T04:01:20;8.75;;;3.97;;
52468;SDS011;38381;53.688;10.776;2024-03-17T04:06:22;12.38;;;4.68;;
52468;SDS011;38381;53.688;10.776;2024-03-17T04:11:23;11.30;;;3.60;;
52468;SDS011;38381;53.688;10.776;2024-03-17T04:16:23;6.47;;;2.88;;
52468;SDS011;38381;53.688;10.776;2024-03-17T04:21:24;6.70;;;3.30;;
52468;SDS011;38381;53.688;10.776;2024-03-17T04:26:24;22.58;;;6.30;;
52468;SDS011;38381;53.688;10.776;2024-03-17T04:31:25;8.90;;;3.97;;
52468;SDS011;38381;53.688;10.776;2024-03-17T04:36:25;5.40;;;3.20;;
52468;SDS011;38381;53.688;10.776;2024-03-17T04:41:26;5.57;;;3.28;;
52468;SDS011;38381;53.688;10.776;2024-03-17T04:46:27;9.60;;;3.42;;
52468;SDS011;38381;53.688;10.776;2024-03-17T04:51:28;7.75;;;3.28;;
52468;SDS011;38381;53.688;10.776;2024-03-17T04:56:28;5.28;;;2.88;;
52468;SDS011;38381;53.688;10.776;2024-03-17T05:01:28;7.03;;;2.80;;
52468;SDS011;38381;53.688;10.776;2024-03-17T05:06:31;9.43;;;3.50;;
52468;SDS011;38381;53.688;10.776;2024-03-17T05:11:31;11.95;;;4.72;;
52468;SDS011;38381;53.688;10.776;2024-03-17T05:16:33;9.75;;;4.18;;
52468;SDS011;38381;53.688;10.776;2024-03-17T05:21:34;7.30;;;2.70;;
52468;SDS011;38381;53.688;10.776;2024-03-17T05:26:34;5.72;;;3.00;;
52468;SDS011;38381;53.688;10.776;2024-03-17T05:31:34;6.60;;;2.97;;
52468;SDS011;38381;53.688;10.776;2024-03-17T05:36:35;6.15;;;3.13;;
52468;SDS011;38381;53.688;10.776;2024-03-17T05:41:35;4.97;;;3.03;;
52468;SDS011;38381;53.688;10.776;2024-03-17T05:46:36;7.50;;;3.15;;
52468;SDS011;38381;53.688;10.776;2024-03-17T05:51:37;11.15;;;4.78;;
52468;SDS011;38381;53.688;10.776;2024-03-17T05:56:37;8.10;;;4.97;;
52468;SDS011;38381;53.688;10.776;2024-03-17T06:01:39;6.97;;;3.63;;
52468;SDS011;38381;53.688;10.776;2024-03-17T06:06:39;9.88;;;3.30;;
52468;SDS011;38381;53.688;10.776;2024-03-17T06:11:40;6.93;;;3.70;;
52468;SDS011;38381;53.688;10.776;2024-03-17T06:16:40;7.25;;;3.05;;
52468;SDS011;38381;53.688;10.776;2024-03-17T06:21:41;7.90;;;4.95;;
52468;SDS011;38381;53.688;10.776;2024-03-17T06:26:42;6.70;;;2.92;;
52468;SDS011;38381;53.688;10.776;2024-03-17T06:31:42;9.05;;;4.03;;
52468;SDS011;38381;53.688;10.776;2024-03-17T06:36:43;6.68;;;3.88;;
52468;SDS011;38381;53.688;10.776;2024-03-17T06:41:43;10.35;;;4.45;;
52468;SDS011;38381;53.688;10.776;2024-03-17T06:46:44;18.25;;;8.30;;
52468;SDS011;38381;53.688;10.776;2024-03-17T06:51:47;16.15;;;5.03;;
52468;SDS011;38381;53.688;10.776;2024-03-17T06:56:48;11.20;;;3.67;;
52468;SDS011;38381;53.688;10.776;2024-03-17T07:01:49;7.50;;;3.78;;
52468;SDS011;38381;53.688;10.776;2024-03-17T07:06:50;5.90;;;3.97;;
52468;SDS011;38381;53.688;10.776;2024-03-17T07:11:50;7.35;;;4.25;;
52468;SDS011;38381;53.688;10.776;2024-03-17T07:16:51;7.55;;;3.13;;
52468;SDS011;38381;53.688;10.776;2024-03-17T07:21:51;7.78;;;3.38;;
52468;SDS011;38381;53.688;10.776;2024-03-17T07:26:52;11.18;;;3.80;;
52468;SDS011;38381;53.688;10.776;2024-03-17T07:31:52;9.52;;;3.90;;
52468;SDS011;38381;53.688;10.776;2024-03-17T07:36:53;6.20;;;3.08;;
52468;SDS011;38381;53.688;10.776;2024-03-17T07:41:54;7.90;;;3.63;;
52468;SDS011;38381;53.688;10.776;2024-03-17T07:46:54;13.57;;;4.75;;
52468;SDS011;38381;53.688;10.776;2024-03-17T07:51:55;7.13;;;3.38;;
52468;SDS011;38381;53.688;10.776;2024-03-17T08:01:58;10.33;;;4.57;;
52468;SDS011;38381;53.688;10.776;2024-03-17T08:06:58;13.02;;;4.30;;
52468;SDS011;38381;53.688;10.776;2024-03-17T08:11:59;7.95;;;2.85;;
52468;SDS011;38381;53.688;10.776;2024-03-17T08:16:59;6.22;;;2.92;;
52468;SDS011;38381;53.688;10.776;2024-03-17T08:22:00;9.48;;;3.03;;
52468;SDS011;38381;53.688;10.776;2024-03-17T08:27:00;6.47;;;3.50;;
52468;SDS011;38381;53.688;10.776;2024-03-17T08:32:01;8.73;;;3.00;;
52468;SDS011;38381;53.688;10.776;2024-03-17T08:37:01;7.95;;;3.35;;
52468;SDS011;38381;53.688;10.776;2024-03-17T08:42:02;8.23;;;3.45;;
52468;SDS011;38381;53.688;10.776;2024-03-17T08:47:03;8.82;;;2.67;;
52468;SDS011;38381;53.688;10.776;2024-03-17T08:52:04;10.27;;;3.30;;
52468;SDS011;38381;53.688;10.776;2024-03-17T08:57:04;6.20;;;2.83;;
52468;SDS011;38381;53.688;10.776;2024-03-17T09:02:05;6.97;;;2.53;;
52468;SDS011;38381;53.688;10.776;2024-03-17T09:07:10;6.22;;;3.25;;
52468;SDS011;38381;53.688;10.776;2024-03-17T09:12:11;5.50;;;2.97;;
52468;SDS011;38381;53.688;10.776;2024-03-17T09:17:11;11.38;;;3.30;;
52468;SDS011;38381;53.688;10.776;2024-03-17T09:22:11;5.60;;;3.33;;
52468;SDS011;38381;53.688;10.776;2024-03-17T09:27:12;5.78;;;2.85;;
52468;SDS011;38381;53.688;10.776;2024-03-17T09:32:14;14.50;;;3.88;;
52468;SDS011;38381;53.688;10.776;2024-03-17T09:37:18;6.90;;;2.42;;
52468;SDS011;38381;53.688;10.776;2024-03-17T09:42:18;4.32;;;2.40;;
52468;SDS011;38381;53.688;10.776;2024-03-17T09:47:19;3.08;;;2.25;;
52468;SDS011;38381;53.688;10.776;2024-03-17T09:52:24;6.70;;;3.28;;
52468;SDS011;38381;53.688;10.776;2024-03-17T09:57:25;5.10;;;3.17;;
52468;SDS011;38381;53.688;10.776;2024-03-17T10:02:27;4.22;;;2.30;;
52468;SDS011;38381;53.688;10.776;2024-03-17T10:08:00;6.78;;;3.28;;
52468;SDS011;38381;53.688;10.776;2024-03-17T10:12:54;8.40;;;3.75;;
52468;SDS011;38381;53.688;10.776;2024-03-17T10:17:54;6.43;;;2.70;;
52468;SDS011;38381;53.688;10.776;2024-03-17T10:23:05;11.00;;;2.90;;
52468;SDS011;38381;53.688;10.776;2024-03-17T10:28:14;6.05;;;2.30;;
52468;SDS011;38381;53.688;10.776;2024-03-17T10:33:22;5.63;;;2.83;;
52468;SDS011;38381;53.688;10.776;2024-03-17T10:38:25;4.03;;;2.15;;
52468;SDS011;38381;53.688;10.776;2024-03-17T10:43:27;2.67;;;1.90;;
52468;SDS011;38381;53.688;10.776;2024-03-17T10:48:30;4.97;;;2.50;;
52468;SDS011;38381;53.688;10.776;2024-03-17T10:53:32;10.00;;;3.50;;
52468;SDS011;38381;53.688;10.776;2024-03-17T10:58:34;7.13;;;2.40;;
52468;SDS011;38381;53.688;10.776;2024-03-17T11:03:41;5.25;;;2.13;;
52468;SDS011;38381;53.688;10.776;2024-03-17T11:08:42;6.22;;;2.28;;
52468;SDS011;38381;53.688;10.776;2024-03-17T11:13:42;3.83;;;2.10;;
52468;SDS011;38381;53.688;10.776;2024-03-17T11:18:43;6.60;;;2.47;;
52468;SDS011;38381;53.688;10.776;2024-03-17T11:23:45;6.13;;;2.30;;
52468;SDS011;38381;53.688;10.776;2024-03-17T11:28:56;4.82;;;2.45;;
52468;SDS011;38381;53.688;10.776;2024-03-17T11:34:02;3.67;;;2.40;;
52468;SDS011;38381;53.688;10.776;2024-03-17T11:39:05;5.63;;;2.47;;
52468;SDS011;38381;53.688;10.776;2024-03-17T11:54:26;4.28;;;2.75;;
52468;SDS011;38381;53.688;10.776;2024-03-17T11:59:29;4.63;;;1.75;;
52468;SDS011;38381;53.688;10.776;2024-03-17T12:04:30;5.15;;;1.90;;
52468;SDS011;38381;53.688;10.776;2024-03-17T12:09:30;6.95;;;2.00;;
52468;SDS011;38381;53.688;10.776;2024-03-17T12:14:32;2.65;;;1.67;;
52468;SDS011;38381;53.688;10.776;2024-03-17T12:19:33;2.47;;;2.20;;
52468;SDS011;38381;53.688;10.776;2024-03-17T12:24:35;3.17;;;2.03;;
52468;SDS011;38381;53.688;10.776;2024-03-17T12:29:37;5.75;;;2.70;;
52468;SDS011;38381;53.688;10.776;2024-03-17T12:34:47;2.58;;;1.70;;
52468;SDS011;38381;53.688;10.776;2024-03-17T12:39:49;5.43;;;2.47;;
52468;SDS011;38381;53.688;10.776;2024-03-17T12:44:51;2.17;;;1.80;;
52468;SDS011;38381;53.688;10.776;2024-03-17T12:49:53;5.72;;;2.28;;
52468;SDS011;38381;53.688;10.776;2024-03-17T12:55:00;5.20;;;2.05;;
52468;SDS011;38381;53.688;10.776;2024-03-17T13:00:22;3.75;;;2.20;;
52468;SDS011;38381;53.688;10.776;2024-03-17T13:05:32;4.18;;;2.22;;
52468;SDS011;38381;53.688;10.776;2024-03-17T13:10:33;4.80;;;1.90;;
52468;SDS011;38381;53.688;10.776;2024-03-17T13:15:34;6.00;;;2.67;;
52468;SDS011;38381;53.688;10.776;2024-03-17T13:20:37;5.75;;;1.83;;
52468;SDS011;38381;53.688;10.776;2024-03-17T13:25:38;3.05;;;2.00;;
52468;SDS011;38381;53.688;10.776;2024-03-17T13:30:38;3.25;;;2.35;;
52468;SDS011;38381;53.688;10.776;2024-03-17T13:35:40;3.80;;;1.42;;
52468;SDS011;38381;53.688;10.776;2024-03-17T13:40:41;2.88;;;1.80;;
52468;SDS011;38381;53.688;10.776;2024-03-17T13:45:42;3.10;;;2.20;;
52468;SDS011;38381;53.688;10.776;2024-03-17T13:50:43;3.13;;;1.65;;
52468;SDS011;38381;53.688;10.776;2024-03-17T13:55:44;6.90;;;2.35;;
52468;SDS011;38381;53.688;10.776;2024-03-17T14:00:46;3.43;;;2.47;;
52468;SDS011;38381;53.688;10.776;2024-03-17T14:05:46;4.43;;;2.20;;
52468;SDS011;38381;53.688;10.776;2024-03-17T14:10:47;5.15;;;2.30;;
52468;SDS011;38381;53.688;10.776;2024-03-17T14:15:47;4.85;;;2.67;;
52468;SDS011;38381;53.688;10.776;2024-03-17T14:20:48;2.35;;;2.03;;
52468;SDS011;38381;53.688;10.776;2024-03-17T14:25:48;3.28;;;2.15;;
52468;SDS011;38381;53.688;10.776;2024-03-17T14:30:49;5.10;;;2.67;;
52468;SDS011;38381;53.688;10.776;2024-03-17T14:35:55;3.28;;;2.63;;
52468;SDS011;38381;53.688;10.776;2024-03-17T14:41:00;4.43;;;2.10;;
52468;SDS011;38381;53.688;10.776;2024-03-17T14:46:01;4.00;;;2.25;;
52468;SDS011;38381;53.688;10.776;2024-03-17T14:51:02;2.45;;;2.17;;
52468;SDS011;38381;53.688;10.776;2024-03-17T14:56:04;2.35;;;1.83;;
52468;SDS011;38381;53.688;10.776;2024-03-17T15:01:05;5.35;;;2.85;;
52468;SDS011;38381;53.688;10.776;2024-03-17T15:06:12;2.50;;;1.98;;
52468;SDS011;38381;53.688;10.776;2024-03-17T15:11:13;3.08;;;2.30;;
52468;SDS011;38381;53.688;10.776;2024-03-17T15:16:14;3.95;;;2.35;;
52468;SDS011;38381;53.688;10.776;2024-03-17T15:21:15;4.22;;;3.03;;
52468;SDS011;38381;53.688;10.776;2024-03-17T15:26:16;2.92;;;2.05;;
52468;SDS011;38381;53.688;10.776;2024-03-17T15:31:17;3.22;;;2.22;;
52468;SDS011;38381;53.688;10.776;2024-03-17T15:36:18;3.30;;;1.73;;
52468;SDS011;38381;53.688;10.776;2024-03-17T15:41:20;5.17;;;2.90;;
52468;SDS011;38381;53.688;10.776;2024-03-17T15:46:20;4.25;;;2.42;;
52468;SDS011;38381;53.688;10.776;2024-03-17T15:51:22;4.03;;;1.90;;
52468;SDS011;38381;53.688;10.776;2024-03-17T15:56:22;3.10;;;2.78;;
52468;SDS011;38381;53.688;10.776;2024-03-17T16:01:23;4.43;;;2.40;;
52468;SDS011;38381;53.688;10.776;2024-03-17T16:06:23;4.68;;;2.90;;
52468;SDS011;38381;53.688;10.776;2024-03-17T16:11:26;3.38;;;2.88;;
52468;SDS011;38381;53.688;10.776;2024-03-17T16:16:28;5.38;;;4.57;;
52468;SDS011;38381;53.688;10.776;2024-03-17T16:26:32;3.45;;;2.95;;
52468;SDS011;38381;53.688;10.776;2024-03-17T16:31:36;4.65;;;3.47;;
52468;SDS011;38381;53.688;10.776;2024-03-17T16:36:38;5.73;;;3.80;;
52468;SDS011;38381;53.688;10.776;2024-03-17T16:41:40;3.65;;;3.08;;
52468;SDS011;38381;53.688;10.776;2024-03-17T16:51:51;3.75;;;3.00;;
52468;SDS011;38381;53.688;10.776;2024-03-17T16:56:52;6.22;;;3.55;;
52468;SDS011;38381;53.688;10.776;2024-03-17T17:01:54;3.83;;;3.25;;
52468;SDS011;38381;53.688;10.776;2024-03-17T17:06:54;3.78;;;3.33;;
52468;SDS011;38381;53.688;10.776;2024-03-17T17:11:56;4.40;;;3.93;;
52468;SDS011;38381;53.688;10.776;2024-03-17T17:16:59;4.43;;;3.15;;
52468;SDS011;38381;53.688;10.776;2024-03-17T17:22:00;4.13;;;3.45;;
52468;SDS011;38381;53.688;10.776;2024-03-17T17:27:03;4.60;;;3.38;;
52468;SDS011;38381;53.688;10.776;2024-03-17T17:32:08;5.95;;;3.58;;
52468;SDS011;38381;53.688;10.776;2024-03-17T17:37:09;4.82;;;3.17;;
52468;SDS011;38381;53.688;10.776;2024-03-17T17:42:12;4.40;;;3.30;;
52468;SDS011;38381;53.688;10.776;2024-03-17T17:47:12;6.03;;;4.40;;
52468;SDS011;38381;53.688;10.776;2024-03-17T17:52:13;5.75;;;4.57;;
52468;SDS011;38381;53.688;10.776;2024-03-17T17:57:14;4.40;;;4.00;;
52468;SDS011;38381;53.688;10.776;2024-03-17T18:02:14;6.07;;;4.20;;
52468;SDS011;38381;53.688;10.776;2024-03-17T18:07:15;7.63;;;4.05;;
52468;SDS011;38381;53.688;10.776;2024-03-17T18:12:15;4.82;;;3.85;;
52468;SDS011;38381;53.688;10.776;2024-03-17T18:17:16;7.82;;;4.85;;
52468;SDS011;38381;53.688;10.776;2024-03-17T18:22:18;4.03;;;3.63;;
52468;SDS011;38381;53.688;10.776;2024-03-17T18:27:19;16.77;;;4.30;;
52468;SDS011;38381;53.688;10.776;2024-03-17T18:32:19;5.05;;;3.97;;
52468;SDS011;38381;53.688;10.776;2024-03-17T18:37:20;4.65;;;4.25;;
52468;SDS011;38381;53.688;10.776;2024-03-17T18:42:20;7.80;;;4.25;;
52468;SDS011;38381;53.688;10.776;2024-03-17T18:47:21;4.35;;;3.75;;
52468;SDS011;38381;53.688;10.776;2024-03-17T18:52:21;4.50;;;3.75;;
52468;SDS011;38381;53.688;10.776;2024-03-17T18:57:22;5.50;;;4.22;;
52468;SDS011;38381;53.688;10.776;2024-03-17T19:02:22;4.75;;;4.28;;
52468;SDS011;38381;53.688;10.776;2024-03-17T19:07:23;5.55;;;5.05;;
52468;SDS011;38381;53.688;10.776;2024-03-17T19:12:26;5.05;;;4.65;;
52468;SDS011;38381;53.688;10.776;2024-03-17T19:17:26;4.43;;;3.90;;
52468;SDS011;38381;53.688;10.776;2024-03-17T19:22:30;5.97;;;3.97;;
52468;SDS011;38381;53.688;10.776;2024-03-17T19:27:37;5.05;;;4.57;;
52468;SDS011;38381;53.688;10.776;2024-03-17T19:32:38;8.90;;;4.63;;
52468;SDS011;38381;53.688;10.776;2024-03-17T19:37:40;6.25;;;4.88;;
52468;SDS011;38381;53.688;10.776;2024-03-17T19:42:40;6.05;;;4.70;;
52468;SDS011;38381;53.688;10.776;2024-03-17T19:47:42;5.20;;;4.13;;
52468;SDS011;38381;53.688;10.776;2024-03-17T19:52:43;5.55;;;4.95;;
52468;SDS011;38381;53.688;10.776;2024-03-17T19:57:46;6.70;;;4.72;;
52468;SDS011;38381;53.688;10.776;2024-03-17T20:02:46;4.85;;;4.25;;
52468;SDS011;38381;53.688;10.776;2024-03-17T20:07:47;6.47;;;5.10;;
52468;SDS011;38381;53.688;10.776;2024-03-17T20:12:48;5.28;;;3.88;;
52468;SDS011;38381;53.688;10.776;2024-03-17T20:17:52;6.30;;;4.55;;
52468;SDS011;38381;53.688;10.776;2024-03-17T20:22:52;5.53;;;5.03;;
52468;SDS011;38381;53.688;10.776;2024-03-17T20:27:53;4.55;;;4.00;;
52468;SDS011;38381;53.688;10.776;2024-03-17T20:32:56;5.45;;;3.83;;
52468;SDS011;38381;53.688;10.776;2024-03-17T20:37:57;4.07;;;3.67;;
52468;SDS011;38381;53.688;10.776;2024-03-17T20:42:58;4.32;;;3.42;;
52468;SDS011;38381;53.688;10.776;2024-03-17T20:48:00;4.97;;;4.43;;
52468;SDS011;38381;53.688;10.776;2024-03-17T20:53:01;4.00;;;3.55;;
52468;SDS011;38381;53.688;10.776;2024-03-17T20:58:02;3.90;;;3.45;;
52468;SDS011;38381;53.688;10.776;2024-03-17T21:03:05;5.53;;;4.95;;
52468;SDS011;38381;53.688;10.776;2024-03-17T21:08:06;6.72;;;4.20;;
52468;SDS011;38381;53.688;10.776;2024-03-17T21:13:08;3.77;;;3.37;;
52468;SDS011;38381;53.688;10.776;2024-03-17T21:18:09;3.90;;;3.50;;
52468;SDS011;38381;53.688;10.776;2024-03-17T21:23:09;4.07;;;3.67;;
52468;SDS011;38381;53.688;10.776;2024-03-17T21:28:09;4.78;;;3.10;;
52468;SDS011;38381;53.688;10.776;2024-03-17T21:33:10;5.03;;;4.03;;
52468;SDS011;38381;53.688;10.776;2024-03-17T21:38:12;4.03;;;3.73;;
52468;SDS011;38381;53.688;10.776;2024-03-17T21:43:12;3.80;;;2.80;;
52468;SDS011;38381;53.688;10.776;2024-03-17T21:48:13;4.53;;;3.10;;
52468;SDS011;38381;53.688;10.776;2024-03-17T21:53:15;4.17;;;3.77;;
52468;SDS011;38381;53.688;10.776;2024-03-17T21:58:15;4.75;;;3.97;;
52468;SDS011;38381;53.688;10.776;2024-03-17T22:03:16;3.97;;;3.15;;
52468;SDS011;38381;53.688;10.776;2024-03-17T22:08:17;4.95;;;4.45;;
52468;SDS011;38381;53.688;10.776;2024-03-17T22:13:21;3.78;;;3.42;;
52468;SDS011;38381;53.688;10.776;2024-03-17T22:18:23;3.42;;;3.13;;
52468;SDS011;38381;53.688;10.776;2024-03-17T22:23:24;3.57;;;3.13;;
52468;SDS011;38381;53.688;10.776;2024-03-17T22:28:26;3.47;;;3.17;;
52468;SDS011;38381;53.688;10.776;2024-03-17T22:33:28;3.43;;;3.13;;
52468;SDS011;38381;53.688;10.776;2024-03-17T22:38:29;4.05;;;3.75;;
52468;SDS011;38381;53.688;10.776;2024-03-17T22:43:30;3.47;;;3.17;;
52468;SDS011;38381;53.688;10.776;2024-03-17T22:48:32;5.37;;;3.53;;
52468;SDS011;38381;53.688;10.776;2024-03-17T22:53:37;6.50;;;3.45;;
52468;SDS011;38381;53.688;10.776;2024-03-17T22:58:38;3.55;;;3.25;;
52468;SDS011;38381;53.688;10.776;2024-03-17T23:03:43;3.70;;;3.40;;
52468;SDS011;38381;53.688;10.776;2024-03-17T23:08:44;7.38;;;3.35;;
52468;SDS011;38381;53.688;10.776;2024-03-17T23:13:44;4.68;;;4.10;;
52468;SDS011;38381;53.688;10.776;2024-03-17T23:18:45;3.92;;;3.38;;
52468;SDS011;38381;53.688;10.776;2024-03-17T23:23:46;3.50;;;3.20;;
52468;SDS011;38381;53.688;10.776;2024-03-17T23:28:46;3.88;;;3.58;;
52468;SDS011;38381;53.688;10.776;2024-03-17T23:33:47;3.53;;;3.17;;
52468;SDS011;38381;53.688;10.776;2024-03-17T23:38:47;3.70;;;3.40;;
52468;SDS011;38381;53.688;10.776;2024-03-17T23:43:50;3.95;;;3.65;;
52468;SDS011;38381;53.688;10.776;2024-03-17T23:48:51;3.15;;;2.85;;
52468;SDS011;38381;53.688;10.776;2024-03-17T23:53:51;5.30;;;3.10;;
52468;SDS011;38381;53.688;10.776;2024-03-17T23:58:52;4.82;;;3.33;;
